sensor_id;sensor_type;location;lat;lon;timestamp;P1;durP1;ratioP1;P2;durP2;ratioP2
59410;SDS011;45215;32.610;-115.482;2022-08-19T00:00:49;1.60;;;1.50;;
59410;SDS011;45215;32.610;-115.482;2022-08-19T00:03:15;3.60;;;1.80;;
59410;SDS011;45215;32.610;-115.482;2022-08-19T00:05:41;1.98;;;1.40;;
59410;SDS011;45215;32.610;-115.482;2022-08-19T00:08:07;3.42;;;1.90;;
59410;SDS011;45215;32.610;-115.482;2022-08-19T00:10:34;1.40;;;1.30;;
59410;SDS011;45215;32.610;-115.482;2022-08-19T00:13:00;1.50;;;1.38;;
59410;SDS011;45215;32.610;-115.482;2022-08-19T00:15:26;2.42;;;1.77;;
59410;SDS011;45215;32.610;-115.482;2022-08-19T00:17:52;2.63;;;1.55;;
59410;SDS011;45215;32.610;-115.482;2022-08-19T00:20:20;4.40;;;1.83;;
59410;SDS011;45215;32.610;-115.482;2022-08-19T00:22:47;2.00;;;1.48;;
59410;SDS011;45215;32.610;-115.482;2022-08-19T00:25:14;2.58;;;1.50;;
59410;SDS011;45215;32.610;-115.482;2022-08-19T00:27:41;2.85;;;1.60;;
59410;SDS011;45215;32.610;-115.482;2022-08-19T00:30:07;2.45;;;1.50;;
59410;SDS011;45215;32.610;-115.482;2022-08-19T00:32:35;1.50;;;1.40;;
59410;SDS011;45215;32.610;-115.482;2022-08-19T00:35:04;1.95;;;1.48;;
59410;SDS011;45215;32.610;-115.482;2022-08-19T00:37:30;1.42;;;1.20;;
59410;SDS011;45215;32.610;-115.482;2022-08-19T00:39:58;1.58;;;1.15;;
59410;SDS011;45215;32.610;-115.482;2022-08-19T00:42:24;1.90;;;1.40;;
59410;SDS011;45215;32.610;-115.482;2022-08-19T00:44:53;2.22;;;1.23;;
59410;SDS011;45215;32.610;-115.482;2022-08-19T00:47:19;2.30;;;1.10;;
59410;SDS011;45215;32.610;-115.482;2022-08-19T00:49:51;1.35;;;1.20;;
59410;SDS011;45215;32.610;-115.482;2022-08-19T00:52:23;1.60;;;1.08;;
59410;SDS011;45215;32.610;-115.482;2022-08-19T00:54:57;1.80;;;1.30;;
59410;SDS011;45215;32.610;-115.482;2022-08-19T00:57:32;1.30;;;1.17;;
59410;SDS011;45215;32.610;-115.482;2022-08-19T01:00:08;1.35;;;1.08;;
59410;SDS011;45215;32.610;-115.482;2022-08-19T01:02:37;2.40;;;1.10;;
59410;SDS011;45215;32.610;-115.482;2022-08-19T01:05:05;1.70;;;1.15;;
59410;SDS011;45215;32.610;-115.482;2022-08-19T01:07:35;1.25;;;1.10;;
59410;SDS011;45215;32.610;-115.482;2022-08-19T01:10:05;2.45;;;1.17;;
59410;SDS011;45215;32.610;-115.482;2022-08-19T01:12:34;1.50;;;1.10;;
59410;SDS011;45215;32.610;-115.482;2022-08-19T01:15:00;1.40;;;1.10;;
59410;SDS011;45215;32.610;-115.482;2022-08-19T01:17:27;1.85;;;1.30;;
59410;SDS011;45215;32.610;-115.482;2022-08-19T01:19:54;1.30;;;1.20;;
59410;SDS011;45215;32.610;-115.482;2022-08-19T01:24:49;1.20;;;1.00;;
59410;SDS011;45215;32.610;-115.482;2022-08-19T01:27:17;1.75;;;0.90;;
59410;SDS011;45215;32.610;-115.482;2022-08-19T01:29:44;1.02;;;0.93;;
59410;SDS011;45215;32.610;-115.482;2022-08-19T01:32:11;1.08;;;0.98;;
59410;SDS011;45215;32.610;-115.482;2022-08-19T01:34:39;1.25;;;1.10;;
59410;SDS011;45215;32.610;-115.482;2022-08-19T01:37:07;1.27;;;1.08;;
59410;SDS011;45215;32.610;-115.482;2022-08-19T01:39:36;1.20;;;1.00;;
59410;SDS011;45215;32.610;-115.482;2022-08-19T01:42:07;1.23;;;0.80;;
59410;SDS011;45215;32.610;-115.482;2022-08-19T01:44:38;1.20;;;1.00;;
59410;SDS011;45215;32.610;-115.482;2022-08-19T01:47:06;1.13;;;1.02;;
59410;SDS011;45215;32.610;-115.482;2022-08-19T01:49:34;1.13;;;1.00;;
59410;SDS011;45215;32.610;-115.482;2022-08-19T01:52:01;1.10;;;1.00;;
59410;SDS011;45215;32.610;-115.482;2022-08-19T01:54:28;1.40;;;1.10;;
59410;SDS011;45215;32.610;-115.482;2022-08-19T01:56:59;0.98;;;0.90;;
59410;SDS011;45215;32.610;-115.482;2022-08-19T01:59:30;1.00;;;0.90;;
59410;SDS011;45215;32.610;-115.482;2022-08-19T02:01:58;1.15;;;1.00;;
59410;SDS011;45215;32.610;-115.482;2022-08-19T02:04:24;1.10;;;0.93;;
59410;SDS011;45215;32.610;-115.482;2022-08-19T02:06:51;1.17;;;1.00;;
59410;SDS011;45215;32.610;-115.482;2022-08-19T02:09:17;0.98;;;0.82;;
59410;SDS011;45215;32.610;-115.482;2022-08-19T02:11:44;0.80;;;0.80;;
59410;SDS011;45215;32.610;-115.482;2022-08-19T02:14:10;4.57;;;1.10;;
59410;SDS011;45215;32.610;-115.482;2022-08-19T02:16:36;4.15;;;1.50;;
59410;SDS011;45215;32.610;-115.482;2022-08-19T02:19:03;17.30;;;1.92;;
59410;SDS011;45215;32.610;-115.482;2022-08-19T02:21:30;5.47;;;1.85;;
59410;SDS011;45215;32.610;-115.482;2022-08-19T02:23:56;7.25;;;1.95;;
59410;SDS011;45215;32.610;-115.482;2022-08-19T02:26:23;8.23;;;1.63;;
59410;SDS011;45215;32.610;-115.482;2022-08-19T02:28:51;2.80;;;1.35;;
59410;SDS011;45215;32.610;-115.482;2022-08-19T02:31:19;4.90;;;1.70;;
59410;SDS011;45215;32.610;-115.482;2022-08-19T02:33:47;3.03;;;1.40;;
59410;SDS011;45215;32.610;-115.482;2022-08-19T02:36:15;4.15;;;1.30;;
59410;SDS011;45215;32.610;-115.482;2022-08-19T02:38:43;2.80;;;1.30;;
59410;SDS011;45215;32.610;-115.482;2022-08-19T02:41:17;2.90;;;0.98;;
59410;SDS011;45215;32.610;-115.482;2022-08-19T02:43:48;4.32;;;1.17;;
59410;SDS011;45215;32.610;-115.482;2022-08-19T02:46:19;3.63;;;1.10;;
59410;SDS011;45215;32.610;-115.482;2022-08-19T02:48:51;5.70;;;1.50;;
59410;SDS011;45215;32.610;-115.482;2022-08-19T02:51:20;2.05;;;1.20;;
59410;SDS011;45215;32.610;-115.482;2022-08-19T02:53:48;10.45;;;1.30;;
59410;SDS011;45215;32.610;-115.482;2022-08-19T02:56:15;1.63;;;1.00;;
59410;SDS011;45215;32.610;-115.482;2022-08-19T02:58:42;3.40;;;1.20;;
59410;SDS011;45215;32.610;-115.482;2022-08-19T03:01:09;2.75;;;1.17;;
59410;SDS011;45215;32.610;-115.482;2022-08-19T03:03:36;2.50;;;1.15;;
59410;SDS011;45215;32.610;-115.482;2022-08-19T03:06:04;3.20;;;1.00;;
59410;SDS011;45215;32.610;-115.482;2022-08-19T03:08:32;3.88;;;1.17;;
59410;SDS011;45215;32.610;-115.482;2022-08-19T03:10:59;6.05;;;1.38;;
59410;SDS011;45215;32.610;-115.482;2022-08-19T03:13:25;4.97;;;1.20;;
59410;SDS011;45215;32.610;-115.482;2022-08-19T03:15:53;2.00;;;1.10;;
59410;SDS011;45215;32.610;-115.482;2022-08-19T03:18:19;3.03;;;1.10;;
59410;SDS011;45215;32.610;-115.482;2022-08-19T03:20:47;2.72;;;1.17;;
59410;SDS011;45215;32.610;-115.482;2022-08-19T03:23:14;3.53;;;1.20;;
59410;SDS011;45215;32.610;-115.482;2022-08-19T03:25:43;2.80;;;1.40;;
59410;SDS011;45215;32.610;-115.482;2022-08-19T03:28:12;2.55;;;1.02;;
59410;SDS011;45215;32.610;-115.482;2022-08-19T03:30:41;1.50;;;0.98;;
59410;SDS011;45215;32.610;-115.482;2022-08-19T03:33:10;2.53;;;0.93;;
59410;SDS011;45215;32.610;-115.482;2022-08-19T03:35:39;1.48;;;1.10;;
59410;SDS011;45215;32.610;-115.482;2022-08-19T03:38:05;2.40;;;1.00;;
59410;SDS011;45215;32.610;-115.482;2022-08-19T03:40:36;1.40;;;0.88;;
59410;SDS011;45215;32.610;-115.482;2022-08-19T03:43:03;5.07;;;1.00;;
59410;SDS011;45215;32.610;-115.482;2022-08-19T03:45:31;3.47;;;1.10;;
59410;SDS011;45215;32.610;-115.482;2022-08-19T03:47:58;1.90;;;0.80;;
59410;SDS011;45215;32.610;-115.482;2022-08-19T03:50:25;3.47;;;0.95;;
59410;SDS011;45215;32.610;-115.482;2022-08-19T03:52:51;3.90;;;1.30;;
59410;SDS011;45215;32.610;-115.482;2022-08-19T03:55:18;1.42;;;0.80;;
59410;SDS011;45215;32.610;-115.482;2022-08-19T03:57:44;2.42;;;0.93;;
59410;SDS011;45215;32.610;-115.482;2022-08-19T04:00:11;4.53;;;2.53;;
59410;SDS011;45215;32.610;-115.482;2022-08-19T04:02:38;7.82;;;4.53;;
59410;SDS011;45215;32.610;-115.482;2022-08-19T04:05:05;11.07;;;5.68;;
59410;SDS011;45215;32.610;-115.482;2022-08-19T04:07:35;12.85;;;7.82;;
59410;SDS011;45215;32.610;-115.482;2022-08-19T04:10:02;22.10;;;12.27;;
59410;SDS011;45215;32.610;-115.482;2022-08-19T04:12:29;21.45;;;13.30;;
59410;SDS011;45215;32.610;-115.482;2022-08-19T04:14:57;26.10;;;16.23;;
59410;SDS011;45215;32.610;-115.482;2022-08-19T04:17:24;26.85;;;16.15;;
59410;SDS011;45215;32.610;-115.482;2022-08-19T04:19:51;29.73;;;18.73;;
59410;SDS011;45215;32.610;-115.482;2022-08-19T04:22:17;31.02;;;19.58;;
59410;SDS011;45215;32.610;-115.482;2022-08-19T04:24:43;34.33;;;20.67;;
59410;SDS011;45215;32.610;-115.482;2022-08-19T04:27:09;33.50;;;21.42;;
59410;SDS011;45215;32.610;-115.482;2022-08-19T04:29:36;33.53;;;20.42;;
59410;SDS011;45215;32.610;-115.482;2022-08-19T04:32:04;33.45;;;20.92;;
59410;SDS011;45215;32.610;-115.482;2022-08-19T04:34:34;35.47;;;21.45;;
59410;SDS011;45215;32.610;-115.482;2022-08-19T04:37:01;34.00;;;20.83;;
59410;SDS011;45215;32.610;-115.482;2022-08-19T04:39:37;33.75;;;21.08;;
59410;SDS011;45215;32.610;-115.482;2022-08-19T04:42:22;36.83;;;22.02;;
59410;SDS011;45215;32.610;-115.482;2022-08-19T04:45:08;35.03;;;21.85;;
59410;SDS011;45215;32.610;-115.482;2022-08-19T04:47:37;32.85;;;20.73;;
59410;SDS011;45215;32.610;-115.482;2022-08-19T04:50:08;33.90;;;21.02;;
59410;SDS011;45215;32.610;-115.482;2022-08-19T04:52:36;32.70;;;19.55;;
59410;SDS011;45215;32.610;-115.482;2022-08-19T04:55:09;35.33;;;20.67;;
59410;SDS011;45215;32.610;-115.482;2022-08-19T04:57:36;29.67;;;18.85;;
59410;SDS011;45215;32.610;-115.482;2022-08-19T05:00:06;35.58;;;18.92;;
59410;SDS011;45215;32.610;-115.482;2022-08-19T05:02:35;32.72;;;19.30;;
59410;SDS011;45215;32.610;-115.482;2022-08-19T05:05:03;31.00;;;18.50;;
59410;SDS011;45215;32.610;-115.482;2022-08-19T05:07:31;29.50;;;17.95;;
59410;SDS011;45215;32.610;-115.482;2022-08-19T05:09:58;26.00;;;17.10;;
59410;SDS011;45215;32.610;-115.482;2022-08-19T05:12:24;25.55;;;16.77;;
59410;SDS011;45215;32.610;-115.482;2022-08-19T05:14:50;25.08;;;16.17;;
59410;SDS011;45215;32.610;-115.482;2022-08-19T05:17:17;26.00;;;15.80;;
59410;SDS011;45215;32.610;-115.482;2022-08-19T05:19:43;23.42;;;14.90;;
59410;SDS011;45215;32.610;-115.482;2022-08-19T05:22:27;23.92;;;14.88;;
59410;SDS011;45215;32.610;-115.482;2022-08-19T05:25:07;21.15;;;13.80;;
59410;SDS011;45215;32.610;-115.482;2022-08-19T05:27:37;19.10;;;13.30;;
59410;SDS011;45215;32.610;-115.482;2022-08-19T05:30:04;21.00;;;13.35;;
59410;SDS011;45215;32.610;-115.482;2022-08-19T05:32:30;18.38;;;12.93;;
59410;SDS011;45215;32.610;-115.482;2022-08-19T05:34:56;21.45;;;12.95;;
59410;SDS011;45215;32.610;-115.482;2022-08-19T05:37:23;19.45;;;11.77;;
59410;SDS011;45215;32.610;-115.482;2022-08-19T05:39:51;18.10;;;11.20;;
59410;SDS011;45215;32.610;-115.482;2022-08-19T05:42:21;19.42;;;11.57;;
59410;SDS011;45215;32.610;-115.482;2022-08-19T05:44:48;17.73;;;11.55;;
59410;SDS011;45215;32.610;-115.482;2022-08-19T05:47:16;16.90;;;10.77;;
59410;SDS011;45215;32.610;-115.482;2022-08-19T05:49:45;16.33;;;10.55;;
59410;SDS011;45215;32.610;-115.482;2022-08-19T05:52:12;14.70;;;10.27;;
59410;SDS011;45215;32.610;-115.482;2022-08-19T05:54:43;13.95;;;9.35;;
59410;SDS011;45215;32.610;-115.482;2022-08-19T05:57:13;13.77;;;9.13;;
59410;SDS011;45215;32.610;-115.482;2022-08-19T05:59:39;14.70;;;9.48;;
59410;SDS011;45215;32.610;-115.482;2022-08-19T06:02:07;12.73;;;8.32;;
59410;SDS011;45215;32.610;-115.482;2022-08-19T06:04:33;11.77;;;8.50;;
59410;SDS011;45215;32.610;-115.482;2022-08-19T06:07:00;12.68;;;8.05;;
59410;SDS011;45215;32.610;-115.482;2022-08-19T06:09:32;11.43;;;7.38;;
59410;SDS011;45215;32.610;-115.482;2022-08-19T06:11:58;10.93;;;7.47;;
59410;SDS011;45215;32.610;-115.482;2022-08-19T06:14:26;11.35;;;8.05;;
59410;SDS011;45215;32.610;-115.482;2022-08-19T06:16:55;10.52;;;7.45;;
59410;SDS011;45215;32.610;-115.482;2022-08-19T06:19:22;12.63;;;6.75;;
59410;SDS011;45215;32.610;-115.482;2022-08-19T06:33:48;41.20;;;7.03;;
59410;SDS011;45215;32.610;-115.482;2022-08-19T06:36:23;38.22;;;5.93;;
59410;SDS011;45215;32.610;-115.482;2022-08-19T06:38:53;42.83;;;6.38;;
59410;SDS011;45215;32.610;-115.482;2022-08-19T06:41:20;27.13;;;5.05;;
59410;SDS011;45215;32.610;-115.482;2022-08-19T06:43:46;25.27;;;4.95;;
59410;SDS011;45215;32.610;-115.482;2022-08-19T06:46:14;18.02;;;4.30;;
59410;SDS011;45215;32.610;-115.482;2022-08-19T06:48:41;16.60;;;4.50;;
59410;SDS011;45215;32.610;-115.482;2022-08-19T06:51:07;17.80;;;3.95;;
59410;SDS011;45215;32.610;-115.482;2022-08-19T06:53:34;23.38;;;4.00;;
59410;SDS011;45215;32.610;-115.482;2022-08-19T06:56:00;17.95;;;4.00;;
59410;SDS011;45215;32.610;-115.482;2022-08-19T06:58:30;25.75;;;4.82;;
59410;SDS011;45215;32.610;-115.482;2022-08-19T07:03:28;14.60;;;3.50;;
59410;SDS011;45215;32.610;-115.482;2022-08-19T07:05:57;14.65;;;3.72;;
59410;SDS011;45215;32.610;-115.482;2022-08-19T07:08:30;20.77;;;3.58;;
59410;SDS011;45215;32.610;-115.482;2022-08-19T07:10:59;12.98;;;3.10;;
59410;SDS011;45215;32.610;-115.482;2022-08-19T07:13:25;13.75;;;2.80;;
59410;SDS011;45215;32.610;-115.482;2022-08-19T07:15:51;13.75;;;3.00;;
59410;SDS011;45215;32.610;-115.482;2022-08-19T07:18:19;14.63;;;2.90;;
59410;SDS011;45215;32.610;-115.482;2022-08-19T07:20:46;10.02;;;2.80;;
59410;SDS011;45215;32.610;-115.482;2022-08-19T07:23:13;15.38;;;2.58;;
59410;SDS011;45215;32.610;-115.482;2022-08-19T07:25:39;10.70;;;2.70;;
59410;SDS011;45215;32.610;-115.482;2022-08-19T07:28:05;8.63;;;2.72;;
59410;SDS011;45215;32.610;-115.482;2022-08-19T07:30:38;10.48;;;2.38;;
59410;SDS011;45215;32.610;-115.482;2022-08-19T07:33:05;9.32;;;2.38;;
59410;SDS011;45215;32.610;-115.482;2022-08-19T07:35:32;9.13;;;2.25;;
59410;SDS011;45215;32.610;-115.482;2022-08-19T07:37:58;7.72;;;2.10;;
59410;SDS011;45215;32.610;-115.482;2022-08-19T07:40:27;8.45;;;2.25;;
59410;SDS011;45215;32.610;-115.482;2022-08-19T07:42:54;7.07;;;1.95;;
59410;SDS011;45215;32.610;-115.482;2022-08-19T07:45:20;8.15;;;1.80;;
59410;SDS011;45215;32.610;-115.482;2022-08-19T07:47:46;9.82;;;2.05;;
59410;SDS011;45215;32.610;-115.482;2022-08-19T07:50:12;7.65;;;2.00;;
59410;SDS011;45215;32.610;-115.482;2022-08-19T07:52:39;6.53;;;1.83;;
59410;SDS011;45215;32.610;-115.482;2022-08-19T07:55:06;5.18;;;1.95;;
59410;SDS011;45215;32.610;-115.482;2022-08-19T07:57:35;3.90;;;1.50;;
59410;SDS011;45215;32.610;-115.482;2022-08-19T08:00:02;4.72;;;1.70;;
59410;SDS011;45215;32.610;-115.482;2022-08-19T08:02:29;3.92;;;1.65;;
59410;SDS011;45215;32.610;-115.482;2022-08-19T08:04:55;3.75;;;1.83;;
59410;SDS011;45215;32.610;-115.482;2022-08-19T08:07:39;4.05;;;1.30;;
59410;SDS011;45215;32.610;-115.482;2022-08-19T08:10:24;2.15;;;1.02;;
59410;SDS011;45215;32.610;-115.482;2022-08-19T08:12:50;3.00;;;1.25;;
59410;SDS011;45215;32.610;-115.482;2022-08-19T08:15:17;2.45;;;1.35;;
59410;SDS011;45215;32.610;-115.482;2022-08-19T08:17:45;2.40;;;1.30;;
59410;SDS011;45215;32.610;-115.482;2022-08-19T08:20:11;3.30;;;1.10;;
59410;SDS011;45215;32.610;-115.482;2022-08-19T08:22:42;3.03;;;1.30;;
59410;SDS011;45215;32.610;-115.482;2022-08-19T08:25:27;2.30;;;1.15;;
59410;SDS011;45215;32.610;-115.482;2022-08-19T08:27:54;4.68;;;1.50;;
59410;SDS011;45215;32.610;-115.482;2022-08-19T08:30:23;2.80;;;1.10;;
59410;SDS011;45215;32.610;-115.482;2022-08-19T08:32:51;4.15;;;1.40;;
59410;SDS011;45215;32.610;-115.482;2022-08-19T08:35:19;3.45;;;0.98;;
59410;SDS011;45215;32.610;-115.482;2022-08-19T08:37:47;3.95;;;1.00;;
59410;SDS011;45215;32.610;-115.482;2022-08-19T08:40:33;5.68;;;1.30;;
59410;SDS011;45215;32.610;-115.482;2022-08-19T08:45:33;3.30;;;1.00;;
59410;SDS011;45215;32.610;-115.482;2022-08-19T08:48:18;1.40;;;0.73;;
59410;SDS011;45215;32.610;-115.482;2022-08-19T08:51:10;3.60;;;1.10;;
59410;SDS011;45215;32.610;-115.482;2022-08-19T08:53:41;2.05;;;0.90;;
59410;SDS011;45215;32.610;-115.482;2022-08-19T08:56:10;3.42;;;0.82;;
59410;SDS011;45215;32.610;-115.482;2022-08-19T09:03:37;1.20;;;0.80;;
59410;SDS011;45215;32.610;-115.482;2022-08-19T09:06:18;3.50;;;0.80;;
59410;SDS011;45215;32.610;-115.482;2022-08-19T09:14:35;2.30;;;0.90;;
59410;SDS011;45215;32.610;-115.482;2022-08-19T09:17:03;5.07;;;0.82;;
59410;SDS011;45215;32.610;-115.482;2022-08-19T09:19:34;3.97;;;0.77;;
59410;SDS011;45215;32.610;-115.482;2022-08-19T09:22:11;2.65;;;0.98;;
59410;SDS011;45215;32.610;-115.482;2022-08-19T09:24:38;2.33;;;0.85;;
59410;SDS011;45215;32.610;-115.482;2022-08-19T09:27:04;4.75;;;0.70;;
59410;SDS011;45215;32.610;-115.482;2022-08-19T09:29:31;3.63;;;0.90;;
59410;SDS011;45215;32.610;-115.482;2022-08-19T09:31:57;2.30;;;0.80;;
59410;SDS011;45215;32.610;-115.482;2022-08-19T09:34:23;3.58;;;0.65;;
59410;SDS011;45215;32.610;-115.482;2022-08-19T09:36:49;1.50;;;0.60;;
59410;SDS011;45215;32.610;-115.482;2022-08-19T09:39:20;1.42;;;0.70;;
59410;SDS011;45215;32.610;-115.482;2022-08-19T09:41:47;1.90;;;0.90;;
59410;SDS011;45215;32.610;-115.482;2022-08-19T09:44:15;1.88;;;0.80;;
59410;SDS011;45215;32.610;-115.482;2022-08-19T09:46:41;2.67;;;0.55;;
59410;SDS011;45215;32.610;-115.482;2022-08-19T09:49:07;2.10;;;0.77;;
59410;SDS011;45215;32.610;-115.482;2022-08-19T09:51:34;2.88;;;0.80;;
59410;SDS011;45215;32.610;-115.482;2022-08-19T09:54:03;1.15;;;0.68;;
59410;SDS011;45215;32.610;-115.482;2022-08-19T09:56:30;0.70;;;0.55;;
59410;SDS011;45215;32.610;-115.482;2022-08-19T09:59:00;0.80;;;0.60;;
59410;SDS011;45215;32.610;-115.482;2022-08-19T10:01:29;2.90;;;0.70;;
59410;SDS011;45215;32.610;-115.482;2022-08-19T10:03:57;3.00;;;0.60;;
59410;SDS011;45215;32.610;-115.482;2022-08-19T10:06:26;2.65;;;0.50;;
59410;SDS011;45215;32.610;-115.482;2022-08-19T10:08:58;1.45;;;0.50;;
59410;SDS011;45215;32.610;-115.482;2022-08-19T10:11:25;2.55;;;0.52;;
59410;SDS011;45215;32.610;-115.482;2022-08-19T10:13:51;2.90;;;1.48;;
59410;SDS011;45215;32.610;-115.482;2022-08-19T10:16:18;7.20;;;3.72;;
59410;SDS011;45215;32.610;-115.482;2022-08-19T10:18:48;9.38;;;5.45;;
59410;SDS011;45215;32.610;-115.482;2022-08-19T10:21:16;16.75;;;9.88;;
59410;SDS011;45215;32.610;-115.482;2022-08-19T10:23:46;19.00;;;11.10;;
59410;SDS011;45215;32.610;-115.482;2022-08-19T10:26:19;22.00;;;13.25;;
59410;SDS011;45215;32.610;-115.482;2022-08-19T10:28:48;26.00;;;15.15;;
59410;SDS011;45215;32.610;-115.482;2022-08-19T10:31:18;33.92;;;20.30;;
59410;SDS011;45215;32.610;-115.482;2022-08-19T10:33:46;46.43;;;27.70;;
59410;SDS011;45215;32.610;-115.482;2022-08-19T10:36:14;55.55;;;32.28;;
59410;SDS011;45215;32.610;-115.482;2022-08-19T10:38:43;55.13;;;33.03;;
59410;SDS011;45215;32.610;-115.482;2022-08-19T10:41:12;58.72;;;35.30;;
59410;SDS011;45215;32.610;-115.482;2022-08-19T10:43:40;61.58;;;37.00;;
59410;SDS011;45215;32.610;-115.482;2022-08-19T10:46:08;74.80;;;43.72;;
59410;SDS011;45215;32.610;-115.482;2022-08-19T10:48:36;72.82;;;44.28;;
59410;SDS011;45215;32.610;-115.482;2022-08-19T10:51:02;74.15;;;44.03;;
59410;SDS011;45215;32.610;-115.482;2022-08-19T10:53:48;74.28;;;44.47;;
59410;SDS011;45215;32.610;-115.482;2022-08-19T10:56:15;73.78;;;43.25;;
59410;SDS011;45215;32.610;-115.482;2022-08-19T10:59:00;78.63;;;47.03;;
59410;SDS011;45215;32.610;-115.482;2022-08-19T11:01:29;79.45;;;47.35;;
59410;SDS011;45215;32.610;-115.482;2022-08-19T11:03:59;81.97;;;48.00;;
59410;SDS011;45215;32.610;-115.482;2022-08-19T11:06:26;79.97;;;47.03;;
59410;SDS011;45215;32.610;-115.482;2022-08-19T11:08:53;77.80;;;47.38;;
59410;SDS011;45215;32.610;-115.482;2022-08-19T11:11:20;82.60;;;48.00;;
59410;SDS011;45215;32.610;-115.482;2022-08-19T11:13:47;81.88;;;48.30;;
59410;SDS011;45215;32.610;-115.482;2022-08-19T11:16:19;76.78;;;46.58;;
59410;SDS011;45215;32.610;-115.482;2022-08-19T11:18:49;75.18;;;45.58;;
59410;SDS011;45215;32.610;-115.482;2022-08-19T11:21:20;71.80;;;45.13;;
59410;SDS011;45215;32.610;-115.482;2022-08-19T11:23:56;78.15;;;47.95;;
59410;SDS011;45215;32.610;-115.482;2022-08-19T11:26:25;76.90;;;46.92;;
59410;SDS011;45215;32.610;-115.482;2022-08-19T11:28:53;76.22;;;44.85;;
59410;SDS011;45215;32.610;-115.482;2022-08-19T11:31:20;72.82;;;45.13;;
59410;SDS011;45215;32.610;-115.482;2022-08-19T11:33:49;71.65;;;43.95;;
59410;SDS011;45215;32.610;-115.482;2022-08-19T11:36:20;73.18;;;45.53;;
59410;SDS011;45215;32.610;-115.482;2022-08-19T11:38:48;68.53;;;43.20;;
59410;SDS011;45215;32.610;-115.482;2022-08-19T11:41:15;69.18;;;43.70;;
59410;SDS011;45215;32.610;-115.482;2022-08-19T11:43:43;67.28;;;42.55;;
59410;SDS011;45215;32.610;-115.482;2022-08-19T11:46:11;64.47;;;41.20;;
59410;SDS011;45215;32.610;-115.482;2022-08-19T11:48:39;60.92;;;38.85;;
59410;SDS011;45215;32.610;-115.482;2022-08-19T11:51:07;63.38;;;40.38;;
59410;SDS011;45215;32.610;-115.482;2022-08-19T11:53:36;58.30;;;38.22;;
59410;SDS011;45215;32.610;-115.482;2022-08-19T11:56:04;55.47;;;36.40;;
59410;SDS011;45215;32.610;-115.482;2022-08-19T11:58:31;56.88;;;36.38;;
59410;SDS011;45215;32.610;-115.482;2022-08-19T12:00:57;56.13;;;36.45;;
59410;SDS011;45215;32.610;-115.482;2022-08-19T12:03:24;54.35;;;35.75;;
59410;SDS011;45215;32.610;-115.482;2022-08-19T12:05:51;52.95;;;33.92;;
59410;SDS011;45215;32.610;-115.482;2022-08-19T12:08:17;48.50;;;31.50;;
59410;SDS011;45215;32.610;-115.482;2022-08-19T12:10:44;49.13;;;31.63;;
59410;SDS011;45215;32.610;-115.482;2022-08-19T12:13:11;47.15;;;31.08;;
59410;SDS011;45215;32.610;-115.482;2022-08-19T12:15:44;47.10;;;31.38;;
59410;SDS011;45215;32.610;-115.482;2022-08-19T12:18:11;44.60;;;29.42;;
59410;SDS011;45215;32.610;-115.482;2022-08-19T12:20:39;40.20;;;27.33;;
59410;SDS011;45215;32.610;-115.482;2022-08-19T12:23:07;42.63;;;28.25;;
59410;SDS011;45215;32.610;-115.482;2022-08-19T12:25:35;39.92;;;26.77;;
59410;SDS011;45215;32.610;-115.482;2022-08-19T12:28:02;39.50;;;25.80;;
59410;SDS011;45215;32.610;-115.482;2022-08-19T12:30:29;36.85;;;24.35;;
59410;SDS011;45215;32.610;-115.482;2022-08-19T12:32:55;36.00;;;23.90;;
59410;SDS011;45215;32.610;-115.482;2022-08-19T12:35:21;36.03;;;23.00;;
59410;SDS011;45215;32.610;-115.482;2022-08-19T12:37:48;33.00;;;22.88;;
59410;SDS011;45215;32.610;-115.482;2022-08-19T12:40:14;33.40;;;22.35;;
59410;SDS011;45215;32.610;-115.482;2022-08-19T12:42:42;31.98;;;21.85;;
59410;SDS011;45215;32.610;-115.482;2022-08-19T12:45:09;29.73;;;20.35;;
59410;SDS011;45215;32.610;-115.482;2022-08-19T12:47:37;29.58;;;20.23;;
59410;SDS011;45215;32.610;-115.482;2022-08-19T12:50:04;29.73;;;18.75;;
59410;SDS011;45215;32.610;-115.482;2022-08-19T12:52:35;29.15;;;19.80;;
59410;SDS011;45215;32.610;-115.482;2022-08-19T12:55:08;28.25;;;18.23;;
59410;SDS011;45215;32.610;-115.482;2022-08-19T12:57:36;26.88;;;18.13;;
59410;SDS011;45215;32.610;-115.482;2022-08-19T13:00:07;23.63;;;16.33;;
59410;SDS011;45215;32.610;-115.482;2022-08-19T13:02:39;23.27;;;16.25;;
59410;SDS011;45215;32.610;-115.482;2022-08-19T13:05:09;24.02;;;15.75;;
59410;SDS011;45215;32.610;-115.482;2022-08-19T13:07:38;23.20;;;15.30;;
59410;SDS011;45215;32.610;-115.482;2022-08-19T13:10:07;21.02;;;14.55;;
59410;SDS011;45215;32.610;-115.482;2022-08-19T13:12:35;21.48;;;13.55;;
59410;SDS011;45215;32.610;-115.482;2022-08-19T13:15:01;20.58;;;13.95;;
59410;SDS011;45215;32.610;-115.482;2022-08-19T13:17:27;19.75;;;12.95;;
59410;SDS011;45215;32.610;-115.482;2022-08-19T13:19:53;17.88;;;12.70;;
59410;SDS011;45215;32.610;-115.482;2022-08-19T13:22:19;19.13;;;12.68;;
59410;SDS011;45215;32.610;-115.482;2022-08-19T13:24:46;17.20;;;11.13;;
59410;SDS011;45215;32.610;-115.482;2022-08-19T13:27:13;16.50;;;11.43;;
59410;SDS011;45215;32.610;-115.482;2022-08-19T13:29:40;16.17;;;11.23;;
59410;SDS011;45215;32.610;-115.482;2022-08-19T13:32:24;16.42;;;10.88;;
59410;SDS011;45215;32.610;-115.482;2022-08-19T13:35:09;15.48;;;10.60;;
59410;SDS011;45215;32.610;-115.482;2022-08-19T13:37:35;15.60;;;10.10;;
59410;SDS011;45215;32.610;-115.482;2022-08-19T13:40:09;13.77;;;10.07;;
59410;SDS011;45215;32.610;-115.482;2022-08-19T13:42:42;14.13;;;9.70;;
59410;SDS011;45215;32.610;-115.482;2022-08-19T13:45:13;14.30;;;9.88;;
59410;SDS011;45215;32.610;-115.482;2022-08-19T13:47:41;12.32;;;8.77;;
59410;SDS011;45215;32.610;-115.482;2022-08-19T13:50:17;14.57;;;8.93;;
59410;SDS011;45215;32.610;-115.482;2022-08-19T13:52:45;10.52;;;7.60;;
59410;SDS011;45215;32.610;-115.482;2022-08-19T13:55:13;9.90;;;7.80;;
59410;SDS011;45215;32.610;-115.482;2022-08-19T13:57:40;11.95;;;7.93;;
59410;SDS011;45215;32.610;-115.482;2022-08-19T14:00:08;9.57;;;7.57;;
59410;SDS011;45215;32.610;-115.482;2022-08-19T14:02:37;10.98;;;7.45;;
59410;SDS011;45215;32.610;-115.482;2022-08-19T14:05:05;10.23;;;6.72;;
59410;SDS011;45215;32.610;-115.482;2022-08-19T14:07:33;10.10;;;7.20;;
59410;SDS011;45215;32.610;-115.482;2022-08-19T14:09:59;9.38;;;6.70;;
59410;SDS011;45215;32.610;-115.482;2022-08-19T14:12:25;8.13;;;6.10;;
59410;SDS011;45215;32.610;-115.482;2022-08-19T14:14:51;7.50;;;5.47;;
59410;SDS011;45215;32.610;-115.482;2022-08-19T14:17:17;9.65;;;6.18;;
59410;SDS011;45215;32.610;-115.482;2022-08-19T14:19:43;9.90;;;5.75;;
59410;SDS011;45215;32.610;-115.482;2022-08-19T14:22:10;9.07;;;6.10;;
59410;SDS011;45215;32.610;-115.482;2022-08-19T14:24:39;8.27;;;5.93;;
59410;SDS011;45215;32.610;-115.482;2022-08-19T14:27:06;7.50;;;5.45;;
59410;SDS011;45215;32.610;-115.482;2022-08-19T14:29:33;7.25;;;5.40;;
59410;SDS011;45215;32.610;-115.482;2022-08-19T14:31:59;8.13;;;5.30;;
59410;SDS011;45215;32.610;-115.482;2022-08-19T14:34:26;7.22;;;4.80;;
59410;SDS011;45215;32.610;-115.482;2022-08-19T14:36:52;6.28;;;4.55;;